Time;durP1;ratioP1;P1;durP2;ratioP2;P2;SDS_P1;SDS_P2;PMS_P1;PMS_P2;Temp;Humidity;BMP_temperature;BMP_pressure;BME280_temperature;BME280_humidity;BME280_pressure;Samples;Min_cycle;Max_cycle;Signal;HPM_P1;HPM_P2
2022/11/25 00:01:52;;;;;;;34.95;16.50;;;;;;;2.19;100.00;99724.32;1720372;83;21092;-66
2022/11/25 00:04:18;;;;;;;39.67;18.85;;;;;;;2.07;100.00;99722.67;1720592;83;21104;-66
2022/11/25 00:06:45;;;;;;;44.53;21.42;;;;;;;2.09;100.00;99723.52;1720907;83;21061;-65
2022/11/25 00:09:11;;;;;;;30.23;15.38;;;;;;;2.16;100.00;99725.18;1720551;83;21786;-66
2022/11/25 00:11:41;;;;;;;44.50;20.97;;;;;;;2.20;100.00;99723.43;1720722;83;21069;-65
2022/11/25 00:14:13;;;;;;;52.63;22.90;;;;;;;2.17;100.00;99722.17;1715832;83;21169;-66
2022/11/25 00:16:39;;;;;;;54.42;21.90;;;;;;;2.18;100.00;99730.38;1712367;83;21604;-66
2022/11/25 00:19:08;;;;;;;51.33;22.05;;;;;;;2.16;100.00;99735.58;1713770;82;21049;-66
2022/11/25 00:21:35;;;;;;;40.28;19.07;;;;;;;2.15;100.00;99733.86;1713730;83;21578;-66
2022/11/25 00:24:04;;;;;;;51.18;22.05;;;;;;;2.13;100.00;99734.76;1713540;83;21493;-66
2022/11/25 00:26:32;;;;;;;52.05;21.55;;;;;;;2.13;100.00;99737.36;1713330;83;20994;-66
2022/11/25 00:29:01;;;;;;;53.35;21.35;;;;;;;2.02;100.00;99738.73;1713055;83;21065;-67
2022/11/25 00:31:31;;;;;;;50.50;21.82;;;;;;;2.10;100.00;99728.71;1712992;83;21581;-67
2022/11/25 00:33:58;;;;;;;34.70;16.60;;;;;;;2.07;100.00;99733.06;1713358;83;21788;-65
2022/11/25 00:36:28;;;;;;;44.00;21.30;;;;;;;2.20;100.00;99730.78;1712945;83;21022;-66
2022/11/25 00:38:56;;;;;;;48.83;20.75;;;;;;;2.20;100.00;99735.98;1713069;83;21085;-65
2022/11/25 00:46:55;;;;;;;48.90;21.25;;;;;;;2.18;100.00;99737.72;1713166;83;21312;-65
2022/11/25 00:49:21;;;;;;;46.37;20.72;;;;;;;2.19;100.00;99732.97;1713300;83;21561;-66
2022/11/25 00:51:48;;;;;;;47.62;21.62;;;;;;;2.07;100.00;99733.06;1713557;82;21033;-66
2022/11/25 00:54:15;;;;;;;46.10;20.95;;;;;;;2.07;100.00;99735.24;1713265;83;21038;-66
2022/11/25 00:56:41;;;;;;;44.55;21.30;;;;;;;2.04;100.00;99735.25;1713204;83;21529;-66
2022/11/25 00:59:08;;;;;;;50.33;21.30;;;;;;;2.10;100.00;99731.75;1713517;82;21078;-66
2022/11/25 01:01:35;;;;;;;45.25;19.95;;;;;;;1.98;100.00;99735.73;1712742;83;21050;-66
2022/11/25 01:04:02;;;;;;;50.00;21.37;;;;;;;1.99;100.00;99742.67;1713380;82;21054;-66
2022/11/25 01:06:30;;;;;;;49.00;21.07;;;;;;;2.03;100.00;99733.98;1712791;82;21806;-65
2022/11/25 01:08:57;;;;;;;50.65;20.57;;;;;;;1.96;100.00;99741.41;1713029;82;21073;-66
2022/11/25 01:11:24;;;;;;;47.60;22.27;;;;;;;2.01;100.00;99735.73;1712967;83;21239;-66
2022/11/25 01:13:53;;;;;;;45.63;20.20;;;;;;;1.89;100.00;99736.25;1714542;82;21712;-65
2022/11/25 01:16:21;;;;;;;47.00;20.50;;;;;;;2.02;100.00;99747.83;1722486;83;21528;-65
2022/11/25 01:18:49;;;;;;;57.93;21.25;;;;;;;1.92;100.00;99753.98;1720248;83;21049;-65
2022/11/25 01:21:26;;;;;;;42.23;20.08;;;;;;;1.81;100.00;99748.42;1720114;83;21064;-66
2022/11/25 01:23:53;;;;;;;43.63;19.35;;;;;;;1.85;100.00;99751.42;1720434;83;21723;-66
2022/11/25 01:26:22;;;;;;;42.23;19.98;;;;;;;1.87;100.00;99752.28;1720201;83;21100;-66
2022/11/25 01:28:50;;;;;;;45.48;20.25;;;;;;;1.87;100.00;99754.88;1720723;83;21060;-66
2022/11/25 01:31:19;;;;;;;48.95;21.15;;;;;;;1.94;100.00;99754.84;1694125;83;21084;-65
2022/11/25 01:33:47;;;;;;;48.15;20.72;;;;;;;1.88;100.00;99755.28;1720737;83;21596;-65
2022/11/25 01:36:17;;;;;;;48.30;20.40;;;;;;;1.89;100.00;99757.03;1720297;83;21681;-67
2022/11/25 01:38:44;;;;;;;48.80;20.77;;;;;;;1.89;100.00;99751.83;1720665;83;21040;-68
2022/11/25 01:41:13;;;;;;;45.48;19.67;;;;;;;1.88;100.00;99755.28;1720503;83;21037;-67
2022/11/25 01:43:40;;;;;;;45.08;21.17;;;;;;;1.98;100.00;99756.52;1720746;83;22110;-65
2022/11/25 01:46:26;;;;;;;47.88;20.32;;;;;;;1.87;100.00;99751.42;1720436;83;21117;-66
2022/11/25 01:49:02;;;;;;;46.90;20.72;;;;;;;1.92;100.00;99760.48;1720884;83;21758;-65
2022/11/25 01:51:40;;;;;;;46.63;20.23;;;;;;;1.88;100.00;99755.28;1720161;83;21185;-66
2022/11/25 01:54:06;;;;;;;48.75;21.15;;;;;;;1.85;100.00;99761.81;1720572;83;21065;-67
2022/11/25 01:56:38;;;;;;;43.92;19.32;;;;;;;1.94;100.00;99760.03;1693724;83;21041;-65
2022/11/25 01:59:05;;;;;;;46.55;21.33;;;;;;;1.96;100.00;99759.59;1720725;83;21093;-65
2022/11/25 02:01:34;;;;;;;45.23;20.25;;;;;;;1.94;100.00;99758.73;1704818;83;21549;-65
2022/11/25 02:04:00;;;;;;;47.15;19.82;;;;;;;1.96;100.00;99762.19;1697239;84;21034;-65
2022/11/25 02:06:41;;;;;;;47.38;20.23;;;;;;;2.07;100.00;99761.62;1696923;84;21033;-65
2022/11/25 02:09:07;;;;;;;43.87;19.73;;;;;;;2.03;100.00;99763.86;1697284;84;21674;-65
2022/11/25 02:11:37;;;;;;;51.23;21.50;;;;;;;2.02;100.00;99760.81;1681185;84;21076;-65
2022/11/25 07:35:38;;;;;;;55.90;22.03;;;;;;;2.90;100.00;100021.80;1771660;80;22577;-67
2022/11/25 07:38:05;;;;;;;50.35;18.87;;;;;;;2.66;100.00;100028.02;1742332;82;21020;-67
2022/11/25 07:40:33;;;;;;;51.65;20.45;;;;;;;2.78;100.00;100034.02;1762116;81;21644;-69
2022/11/25 07:42:59;;;;;;;57.33;20.68;;;;;;;2.77;100.00;100040.96;1758679;81;21085;-67
2022/11/25 07:45:27;;;;;;;51.73;21.33;;;;;;;2.63;100.00;100043.65;1726808;83;21066;-67
2022/11/25 07:47:57;;;;;;;59.07;21.53;;;;;;;2.78;100.00;100049.62;1759850;81;20985;-68
2022/11/25 07:50:23;;;;;;;48.75;19.52;;;;;;;2.73;100.00;100045.30;1758632;81;21040;-68
2022/11/25 07:52:50;;;;;;;55.35;22.48;;;;;;;2.65;100.00;100047.11;1758365;81;21099;-68
2022/11/25 07:55:18;;;;;;;48.78;18.82;;;;;;;2.79;100.00;100048.77;1758519;81;21033;-68
2022/11/25 07:57:45;;;;;;;51.80;19.98;;;;;;;2.71;100.00;100054.88;1758618;81;20997;-66
2022/11/25 08:00:14;;;;;;;47.17;19.12;;;;;;;2.80;100.00;100055.67;1758368;81;21056;-68
2022/11/25 08:02:40;;;;;;;48.73;20.77;;;;;;;2.85;100.00;100055.20;1758588;81;21057;-67
2022/11/25 08:05:09;;;;;;;57.25;21.35;;;;;;;2.57;100.00;100050.17;1758474;81;21592;-68
2022/11/25 08:07:35;;;;;;;45.63;17.82;;;;;;;2.47;100.00;100051.11;1758577;81;21048;-67
2022/11/25 08:10:02;;;;;;;48.02;18.00;;;;;;;2.58;100.00;100053.22;1758439;81;21080;-68
2022/11/25 08:12:32;;;;;;;50.20;18.95;;;;;;;2.63;100.00;100048.84;1758706;81;21048;-67
2022/11/25 08:14:58;;;;;;;39.00;17.20;;;;;;;2.60;100.00;100054.08;1746013;81;21079;-68
2022/11/25 08:17:25;;;;;;;44.93;17.52;;;;;;;2.84;100.00;100054.79;1728563;83;21139;-68
2022/11/25 08:19:51;;;;;;;63.80;22.02;;;;;;;2.67;100.00;100049.70;1728357;83;21030;-68
2022/11/25 08:22:18;;;;;;;55.55;20.62;;;;;;;2.59;100.00;100045.83;1728496;83;21064;-68
2022/11/25 08:24:44;;;;;;;51.80;19.50;;;;;;;2.56;100.00;100048.45;1728272;83;21596;-70
2022/11/25 08:27:11;;;;;;;53.02;19.95;;;;;;;2.64;100.00;100046.66;1728087;83;21079;-68
2022/11/25 08:29:38;;;;;;;51.00;18.80;;;;;;;2.72;100.00;100047.49;1698046;83;21155;-67
2022/11/25 08:32:07;;;;;;;48.75;18.35;;;;;;;2.75;100.00;100052.25;1727460;83;21087;-67
2022/11/25 08:34:34;;;;;;;52.83;20.32;;;;;;;2.68;100.00;100054.88;1724482;83;21104;-69
2022/11/25 08:37:01;;;;;;;62.60;21.30;;;;;;;2.58;100.00;100050.63;1720552;83;21517;-68
2022/11/25 08:39:28;;;;;;;57.20;19.77;;;;;;;2.69;100.00;100056.63;1720732;83;21552;-68
2022/11/25 08:41:55;;;;;;;57.70;21.80;;;;;;;2.63;100.00;100055.34;1720793;83;21203;-68
2022/11/25 08:44:22;;;;;;;50.23;19.75;;;;;;;2.49;100.00;100053.27;1720340;83;21112;-68
2022/11/25 08:46:48;;;;;;;108.87;40.33;;;;;;;2.49;100.00;100058.47;1720500;83;21104;-68
2022/11/25 08:49:16;;;;;;;62.27;22.05;;;;;;;2.61;100.00;100065.33;1720516;83;21064;-68
2022/11/25 08:51:42;;;;;;;79.97;27.20;;;;;;;2.49;100.00;100063.66;1720554;83;21021;-68
2022/11/25 08:54:10;;;;;;;66.67;22.85;;;;;;;2.57;100.00;100065.77;1720355;83;21601;-69
2022/11/25 08:56:37;;;;;;;122.05;39.63;;;;;;;2.47;100.00;100062.81;1720369;83;21155;-69
2022/11/25 08:59:04;;;;;;;50.58;18.77;;;;;;;2.38;100.00;100065.45;1720404;83;21356;-68
2022/11/25 09:01:30;;;;;;;53.50;20.60;;;;;;;2.51;100.00;100064.53;1720386;83;21045;-67
2022/11/25 09:03:57;;;;;;;52.27;19.90;;;;;;;2.77;100.00;100064.36;1720535;83;21607;-67
2022/11/25 09:06:26;;;;;;;46.40;17.60;;;;;;;2.85;100.00;100065.61;1720409;83;21818;-68
2022/11/25 09:08:57;;;;;;;45.63;18.45;;;;;;;2.85;100.00;100065.61;1720605;83;21116;-68
2022/11/25 09:11:25;;;;;;;51.75;20.08;;;;;;;2.69;100.00;100053.13;1720553;83;21634;-69
2022/11/25 09:13:52;;;;;;;49.18;17.73;;;;;;;2.43;100.00;100061.09;1720447;83;21048;-67
2022/11/25 09:16:21;;;;;;;45.38;18.85;;;;;;;2.53;100.00;100062.75;1716941;83;21097;-68
2022/11/25 09:18:47;;;;;;;61.75;19.92;;;;;;;2.56;100.00;100062.76;1714652;83;21269;-68
2022/11/25 09:21:15;;;;;;;50.48;19.27;;;;;;;2.46;100.00;100058.46;1714525;83;21019;-69
2022/11/25 09:23:43;;;;;;;49.95;20.23;;;;;;;2.63;100.00;100064.45;1714621;83;21045;-68
2022/11/25 09:26:24;;;;;;;43.55;17.50;;;;;;;2.71;100.00;100070.48;1714636;83;21038;-68
2022/11/25 09:28:50;;;;;;;;;;;;;;;2.79;100.00;100068.27;1717415;83;21651;-68
2022/11/25 09:31:17;;;;;;;42.90;17.98;;;;;;;2.75;100.00;100071.75;1714549;83;21073;-67
2022/11/25 09:33:44;;;;;;;47.33;17.73;;;;;;;2.48;100.00;100069.72;1714607;83;21039;-70
2022/11/25 09:36:12;;;;;;;50.33;18.75;;;;;;;2.49;100.00;100065.83;1714021;83;21096;-68
2022/11/25 09:38:43;;;;;;;43.55;17.45;;;;;;;2.51;100.00;100064.53;1714595;83;21105;-69
2022/11/25 09:48:34;;;;;;;44.77;16.93;;;;;;;2.46;100.00;100071.45;1714932;83;21034;-68
2022/11/25 09:51:24;;;;;;;45.58;17.52;;;;;;;2.46;100.00;100070.16;1714639;83;21147;-68
2022/11/25 09:53:57;;;;;;;44.05;16.97;;;;;;;2.47;100.00;100061.51;1714809;83;21049;-69
2022/11/25 09:56:32;;;;;;;39.38;16.05;;;;;;;2.47;100.00;100069.30;1714562;83;21064;-67
2022/11/25 09:59:12;;;;;;;38.00;14.68;;;;;;;2.57;100.00;100067.07;1714672;83;21531;-68
2022/11/25 10:01:53;;;;;;;37.60;14.93;;;;;;;2.56;100.00;100073.16;1714480;83;22149;-70
2022/11/25 10:04:43;;;;;;;41.30;16.00;;;;;;;2.89;100.00;100072.08;1714456;83;21054;-70
2022/11/25 10:07:15;;;;;;;38.60;15.58;;;;;;;2.88;100.00;100072.11;1714410;83;21093;-69
2022/11/25 10:09:42;;;;;;;38.53;15.68;;;;;;;2.94;100.00;100072.05;1714640;83;21616;-69
2022/11/25 10:12:26;;;;;;;47.60;18.25;;;;;;;3.06;100.00;100071.98;1714879;83;21214;-68
2022/11/25 10:15:00;;;;;;;28.87;12.40;;;;;;;3.08;100.00;100067.63;1714513;82;21029;-68
2022/11/25 10:17:36;;;;;;;41.15;15.10;;;;;;;2.98;100.00;100075.06;1691695;84;21057;-68
2022/11/25 10:20:08;;;;;;;35.25;13.88;;;;;;;2.89;100.00;100071.22;1662164;86;21125;-67
2022/11/25 10:22:44;;;;;;;39.00;15.68;;;;;;;2.83;100.00;100071.25;1691369;84;21041;-67
2022/11/25 10:25:20;;;;;;;39.90;15.08;;;;;;;2.82;100.00;100066.49;1662127;86;21781;-67
2022/11/25 10:27:57;;;;;;;40.30;15.60;;;;;;;2.94;100.00;100066.84;1696571;84;21128;-67
2022/11/25 10:31:15;;;;;;;39.55;15.43;;;;;;;3.07;100.00;100067.63;1663604;86;21084;-67
2022/11/25 10:33:51;;;;;;;37.03;15.08;;;;;;;3.01;100.00;100071.13;1684766;85;21047;-67
2022/11/25 10:36:34;;;;;;;48.40;16.80;;;;;;;2.93;100.00;100073.80;1690111;84;21056;-66
2022/11/25 10:39:23;;;;;;;41.15;15.38;;;;;;;3.04;100.00;100069.83;1689260;84;21245;-68
2022/11/25 10:42:07;;;;;;;42.98;17.52;;;;;;;3.11;100.00;100079.75;1667346;85;21054;-67
2022/11/25 10:44:38;;;;;;;51.77;18.27;;;;;;;3.19;100.00;100077.08;1672829;85;21038;-67
2022/11/25 10:47:36;;;;;;;35.00;13.72;;;;;;;3.14;100.00;100084.48;1673179;85;21045;-67
2022/11/25 10:50:34;;;;;;;50.58;17.80;;;;;;;3.10;100.00;100077.56;1672859;85;21584;-65
2022/11/25 10:53:16;;;;;;;45.63;16.45;;;;;;;3.20;100.00;100084.00;1672800;84;21049;-66
2022/11/25 10:56:03;;;;;;;53.10;18.67;;;;;;;3.05;100.00;100089.75;1672851;84;21021;-65
2022/11/25 10:58:36;;;;;;;47.33;17.77;;;;;;;2.96;100.00;100088.52;1687021;84;21061;-66
2022/11/25 11:01:17;;;;;;;50.70;17.57;;;;;;;2.69;100.00;100092.14;1700739;84;21097;-66
2022/11/25 11:03:46;;;;;;;51.83;18.07;;;;;;;2.80;100.00;100088.19;1701526;84;26796;-66
2022/11/25 11:06:36;;;;;;;52.20;18.50;;;;;;;2.77;100.00;100092.97;1701290;84;21215;-65
2022/11/25 11:09:03;;;;;;;52.67;19.32;;;;;;;2.83;100.00;100090.76;1701389;84;21037;-65
2022/11/25 11:11:30;;;;;;;54.35;18.42;;;;;;;2.76;100.00;100095.16;1701186;84;21104;-66
2022/11/25 11:14:11;;;;;;;51.02;19.48;;;;;;;2.77;100.00;100092.12;1701100;83;21041;-66
2022/11/25 11:16:44;;;;;;;47.93;18.35;;;;;;;2.83;100.00;100094.66;1701156;83;21113;-66
2022/11/25 11:19:28;;;;;;;54.03;19.45;;;;;;;2.86;100.00;100098.12;1701349;84;26422;-65
2022/11/25 11:21:56;;;;;;;54.13;17.73;;;;;;;2.85;100.00;100105.92;1700904;84;21081;-67
2022/11/25 11:24:31;;;;;;;51.73;18.77;;;;;;;2.91;100.00;100099.39;1701388;83;21560;-66
2022/11/25 11:27:20;;;;;;;49.00;18.95;;;;;;;2.96;100.00;100106.72;1700876;84;21014;-66
2022/11/25 11:29:47;;;;;;;52.10;19.70;;;;;;;2.91;100.00;100105.45;1693122;84;21085;-67
2022/11/25 11:32:23;;;;;;;58.02;20.60;;;;;;;3.00;100.00;100108.44;1701222;83;21317;-66
2022/11/25 11:35:22;;;;;;;55.35;19.40;;;;;;;3.05;100.00;100111.87;1700221;83;21100;-65
2022/11/25 11:37:54;;;;;;;52.48;18.25;;;;;;;3.06;100.00;100114.91;1695121;84;21058;-66
2022/11/25 11:40:37;;;;;;;57.93;19.87;;;;;;;3.11;100.00;100112.28;1695203;84;21066;-65
2022/11/25 11:43:40;;;;;;;59.05;20.77;;;;;;;3.05;100.00;100117.06;1695302;84;21069;-65
2022/11/25 11:46:38;;;;;;;47.35;17.40;;;;;;;3.08;100.00;100113.17;1694873;84;21205;-66
2022/11/25 11:49:34;;;;;;;46.55;16.40;;;;;;;2.98;100.00;100116.69;1675420;84;21026;-65
2022/11/25 11:52:39;;;;;;;50.55;17.10;;;;;;;2.91;100.00;100117.16;1694713;84;21062;-65
2022/11/25 11:55:29;;;;;;;46.23;17.57;;;;;;;2.94;100.00;100116.27;1695033;84;21507;-67
2022/11/25 11:58:13;;;;;;;47.15;17.23;;;;;;;2.88;100.00;100116.33;1694999;84;21005;-65
2022/11/25 12:00:52;;;;;;;51.92;18.82;;;;;;;2.92;100.00;100115.41;1682191;84;21265;-65
2022/11/25 12:03:23;;;;;;;47.70;16.82;;;;;;;2.98;100.00;100115.39;1695087;84;21056;-65
2022/11/25 12:05:53;;;;;;;51.83;19.17;;;;;;;3.12;100.00;100122.66;1695261;84;21124;-64
2022/11/25 12:08:35;;;;;;;56.80;19.82;;;;;;;3.08;100.00;100114.87;1695310;84;21105;-66
2022/11/25 12:11:11;;;;;;;54.30;17.48;;;;;;;3.04;100.00;100116.66;1693607;84;21052;-65
2022/11/25 12:14:07;;;;;;;46.70;17.20;;;;;;;3.04;100.00;100115.80;1693952;83;22090;-67
2022/11/25 12:16:45;;;;;;;64.95;19.15;;;;;;;2.90;100.00;100119.79;1674465;84;21077;-67
2022/11/25 12:19:23;;;;;;;43.30;15.25;;;;;;;2.67;100.00;100124.67;1666751;86;21091;-67
2022/11/25 12:22:18;;;;;;;42.53;15.95;;;;;;;2.70;100.00;100131.14;1657999;86;21146;-67
2022/11/25 12:24:55;;;;;;;57.78;18.32;;;;;;;2.67;100.00;100133.77;1666713;86;21105;-67
2022/11/25 12:27:47;;;;;;;63.87;20.05;;;;;;;2.56;100.00;100135.55;1666407;86;21184;-68
2022/11/25 12:30:21;;;;;;;44.25;16.32;;;;;;;2.59;100.00;100138.13;1666058;86;21073;-67
2022/11/25 12:33:05;;;;;;;47.45;16.82;;;;;;;2.71;100.00;100133.30;1666896;86;21584;-67
2022/11/25 12:35:52;;;;;;;49.77;18.05;;;;;;;2.73;100.00;100140.22;1668459;85;21006;-68
2022/11/25 12:38:37;;;;;;;39.00;15.03;;;;;;;2.73;100.00;100139.37;1673766;85;21065;-67
2022/11/25 12:41:27;;;;;;;52.35;18.60;;;;;;;2.75;100.00;100135.47;1674561;85;21589;-67
2022/11/25 12:44:28;;;;;;;52.93;18.37;;;;;;;2.59;100.00;100134.67;1674445;85;21069;-66
2022/11/25 12:46:55;;;;;;;44.63;16.27;;;;;;;2.62;100.00;100136.84;1674801;85;21121;-65
2022/11/25 12:49:35;;;;;;;45.73;16.62;;;;;;;2.54;100.00;100145.09;1674312;85;21096;-66
2022/11/25 12:52:35;;;;;;;54.93;17.42;;;;;;;2.50;100.00;100138.17;1674271;85;21033;-67
2022/11/25 12:55:23;;;;;;;36.77;14.73;;;;;;;2.58;100.00;100141.62;1674348;85;21631;-65
2022/11/25 12:58:30;;;;;;;45.55;16.45;;;;;;;2.43;100.00;100138.63;1674608;85;21033;-66
2022/11/25 13:01:09;;;;;;;47.65;16.52;;;;;;;2.52;100.00;100141.63;1674565;85;21080;-65
2022/11/25 13:04:11;;;;;;;44.77;16.85;;;;;;;2.62;100.00;100142.45;1674663;85;21061;-66
2022/11/25 13:07:20;;;;;;;49.05;17.90;;;;;;;2.43;100.00;100139.06;1674638;85;21135;-66
2022/11/25 13:10:18;;;;;;;34.40;14.10;;;;;;;2.48;100.00;100136.00;1674708;85;21564;-66
2022/11/25 13:13:11;;;;;;;47.17;17.67;;;;;;;2.44;100.00;100134.28;1674573;85;21065;-66
2022/11/25 13:15:46;;;;;;;38.42;15.78;;;;;;;2.56;100.00;100135.55;1682788;84;21041;-66
2022/11/25 13:18:17;;;;;;;37.70;12.90;;;;;;;2.59;100.00;100143.33;1702914;84;21013;-66
2022/11/25 13:20:48;;;;;;;36.58;14.35;;;;;;;2.47;100.00;100140.79;1703279;84;21069;-66
2022/11/25 13:23:23;;;;;;;40.03;15.38;;;;;;;2.60;100.00;100141.17;1702773;84;21887;-66
2022/11/25 13:25:52;;;;;;;43.95;15.85;;;;;;;2.57;100.00;100151.56;1702794;84;21080;-66
2022/11/25 13:28:34;;;;;;;41.15;16.05;;;;;;;2.59;100.00;100151.12;1698664;84;21068;-66
2022/11/25 13:31:18;;;;;;;38.80;15.38;;;;;;;2.52;100.00;100146.83;1703009;84;21703;-66
2022/11/25 13:33:50;;;;;;;37.23;15.35;;;;;;;2.47;100.00;100149.45;1702807;84;21573;-66
2022/11/25 13:36:21;;;;;;;38.20;15.35;;;;;;;2.43;100.00;100151.62;1699557;84;21614;-65
2022/11/25 13:38:54;;;;;;;43.68;16.30;;;;;;;2.43;100.00;100159.42;1695768;84;21084;-65
2022/11/25 13:41:35;;;;;;;41.60;15.85;;;;;;;2.33;100.00;100151.23;1695032;84;21065;-65
2022/11/25 13:44:22;;;;;;;;;;;;;;;2.46;100.00;100159.84;1661641;84;21090;-65
2022/11/25 13:46:51;;;;;;;35.48;13.43;;;;;;;2.55;100.00;100153.30;1685476;84;20184;-65
2022/11/25 13:49:39;;;;;;;44.63;15.88;;;;;;;2.51;100.00;100158.97;1685772;84;22385;-66
2022/11/25 13:52:14;;;;;;;30.88;13.10;;;;;;;2.44;100.00;100155.08;1685990;85;21089;-66
2022/11/25 13:54:55;;;;;;;38.38;14.80;;;;;;;2.24;100.00;100154.72;1685864;84;21065;-66
2022/11/25 13:57:34;;;;;;;37.55;14.35;;;;;;;2.14;100.00;100163.42;1686232;84;21635;-66
2022/11/25 14:00:08;;;;;;;;;;;;;;;2.17;100.00;100159.50;1689148;84;21132;-66
2022/11/25 14:02:45;;;;;;;39.73;15.18;;;;;;;2.24;100.00;100167.71;1687103;84;21176;-67
2022/11/25 14:05:44;;;;;;;50.88;15.80;;;;;;;2.02;100.00;100158.23;1686049;85;21140;-66
2022/11/25 14:08:36;;;;;;;43.17;13.93;;;;;;;2.21;100.00;100164.24;1687181;85;21069;-69
2022/11/25 14:11:28;;;;;;;36.40;13.65;;;;;;;2.06;100.00;100169.05;1686593;85;21086;-68
2022/11/25 14:14:03;;;;;;;29.30;12.55;;;;;;;2.17;100.00;100171.20;1686620;85;21088;-68
2022/11/25 14:16:54;;;;;;;35.25;14.78;;;;;;;1.99;100.00;100173.83;1672405;84;21002;-69
2022/11/25 14:19:47;;;;;;;32.65;11.80;;;;;;;2.10;100.00;100173.38;1663476;86;20991;-67
2022/11/25 14:22:42;;;;;;;29.40;12.58;;;;;;;1.96;100.00;100166.05;1664368;85;21543;-67
2022/11/25 14:25:29;;;;;;;39.23;14.98;;;;;;;2.04;100.00;100173.38;1664998;85;21057;-69
2022/11/25 14:28:11;;;;;;;34.75;14.90;;;;;;;2.00;100.00;100174.24;1663756;86;21049;-66
2022/11/25 14:30:50;;;;;;;;;;;;;;;2.16;100.00;100178.54;1666005;86;21875;-68
2022/11/25 14:33:23;;;;;;;30.35;13.05;;;;;;;2.22;100.00;100173.78;1662955;86;20177;-68
2022/11/25 14:35:56;;;;;;;33.58;13.62;;;;;;;2.26;100.00;100178.97;1664038;85;21131;-68
2022/11/25 14:38:58;;;;;;;35.10;13.30;;;;;;;2.02;100.00;100177.27;1672273;85;21053;-70
2022/11/25 14:41:39;;;;;;;34.25;13.13;;;;;;;2.01;100.00;100174.70;1672260;85;22137;-69
2022/11/25 14:44:15;;;;;;;31.33;12.93;;;;;;;1.96;100.00;100180.34;1672256;85;21564;-69
2022/11/25 14:46:52;;;;;;;24.47;11.65;;;;;;;2.05;100.00;100181.62;1672453;85;21579;-67
2022/11/25 14:49:19;;;;;;;29.82;12.53;;;;;;;2.06;100.00;100189.83;1670642;85;21628;-68
2022/11/25 14:51:48;;;;;;;26.27;11.50;;;;;;;2.17;100.00;100183.33;1672193;85;21108;-67
2022/11/25 14:54:17;;;;;;;31.25;12.20;;;;;;;2.15;100.00;100189.81;1672366;85;21045;-68
2022/11/25 14:56:45;;;;;;;28.47;12.05;;;;;;;2.20;100.00;100191.97;1672122;85;21245;-69
2022/11/25 14:59:13;;;;;;;26.00;11.12;;;;;;;2.26;100.00;100187.20;1672307;85;21572;-68
2022/11/25 15:01:51;;;;;;;27.13;11.03;;;;;;;2.05;100.00;100193.31;1672354;85;21104;-69
2022/11/25 15:04:21;;;;;;;28.77;11.80;;;;;;;2.05;100.00;100186.81;1672161;85;21059;-68
2022/11/25 15:06:59;;;;;;;26.97;11.20;;;;;;;2.03;100.00;100187.25;1672145;85;21291;-68
2022/11/25 15:09:31;;;;;;;29.07;11.45;;;;;;;1.95;100.00;100190.27;1671751;85;21178;-69
2022/11/25 15:12:01;;;;;;;27.95;11.40;;;;;;;1.85;100.00;100192.02;1672029;85;21062;-69
2022/11/25 15:14:31;;;;;;;23.55;10.00;;;;;;;1.94;100.00;100196.34;1671982;85;21096;-70
2022/11/25 15:16:58;;;;;;;25.77;10.72;;;;;;;2.01;100.00;100197.63;1672150;85;21129;-70
2022/11/25 15:19:27;;;;;;;22.10;9.60;;;;;;;1.98;100.00;100203.25;1671977;85;21124;-69
2022/11/25 15:21:59;;;;;;;23.05;9.60;;;;;;;2.03;100.00;100209.33;1672000;85;21217;-69
2022/11/25 15:24:32;;;;;;;22.65;10.58;;;;;;;1.97;100.00;100211.92;1672327;85;20994;-70
2022/11/25 15:27:01;;;;;;;22.02;9.73;;;;;;;2.02;100.00;100211.03;1654596;85;21541;-69
2022/11/25 15:29:30;;;;;;;22.52;10.43;;;;;;;2.01;100.00;100216.25;1672357;85;21073;-69
2022/11/25 15:31:58;;;;;;;22.22;9.65;;;;;;;2.05;100.00;100220.59;1672199;85;21064;-69
2022/11/25 15:34:24;;;;;;;23.02;10.25;;;;;;;2.04;100.00;100219.70;1672104;85;21179;-67
2022/11/25 15:36:50;;;;;;;23.45;10.65;;;;;;;1.81;100.00;100224.90;1670443;85;21120;-68
2022/11/25 15:39:26;;;;;;;24.82;9.65;;;;;;;1.87;100.00;100229.25;1667531;86;21514;-69
2022/11/25 15:42:19;;;;;;;20.85;9.95;;;;;;;1.95;100.00;100229.23;1668040;86;21634;-68
2022/11/25 15:45:02;;;;;;;24.02;10.28;;;;;;;2.14;100.00;100225.77;1668188;86;21009;-68
2022/11/25 15:47:30;;;;;;;20.12;9.38;;;;;;;2.14;100.00;100223.17;1668102;86;21155;-68
2022/11/25 15:50:18;;;;;;;21.97;9.70;;;;;;;2.15;100.00;100223.59;1667997;86;21108;-69
2022/11/25 15:52:47;;;;;;;21.25;10.10;;;;;;;2.14;100.00;100226.18;1668005;86;21052;-68
2022/11/25 15:55:37;;;;;;;19.70;9.03;;;;;;;2.03;100.00;100220.58;1668151;85;21005;-68
2022/11/25 15:58:19;;;;;;;17.85;8.55;;;;;;;2.14;100.00;100224.88;1667895;86;21038;-69
2022/11/25 16:01:17;;;;;;;21.10;9.80;;;;;;;2.12;100.00;100218.41;1667861;86;21531;-68
2022/11/25 16:03:45;;;;;;;19.30;9.60;;;;;;;2.05;100.00;100216.25;1667770;85;21034;-68
2022/11/25 16:06:24;;;;;;;19.35;8.95;;;;;;;1.95;100.00;100220.14;1668146;86;21050;-66
2022/11/25 16:08:59;;;;;;;17.62;8.40;;;;;;;2.03;100.00;100217.98;1668047;86;21101;-69
2022/11/25 16:11:32;;;;;;;17.85;7.92;;;;;;;1.99;100.00;100215.38;1667905;86;21056;-69
2022/11/25 16:14:25;;;;;;;18.48;8.73;;;;;;;1.96;100.00;100219.30;1668047;85;21278;-69
2022/11/25 16:17:10;;;;;;;20.43;9.33;;;;;;;2.08;100.00;100223.17;1667738;86;21640;-69
2022/11/25 16:19:43;;;;;;;19.98;9.58;;;;;;;1.95;100.00;100217.55;1667886;86;21064;-69
2022/11/25 16:22:15;;;;;;;21.05;9.28;;;;;;;1.88;100.00;100214.94;1668220;86;21116;-68
2022/11/25 16:24:51;;;;;;;21.05;11.12;;;;;;;1.94;100.00;100223.63;1667733;85;21037;-67
2022/11/25 16:27:21;;;;;;;18.42;8.78;;;;;;;2.07;100.00;100217.52;1667979;86;21215;-68
2022/11/25 16:29:56;;;;;;;19.35;9.10;;;;;;;2.22;100.00;100227.05;1667872;85;21178;-68
2022/11/25 16:32:26;;;;;;;19.42;9.93;;;;;;;2.12;100.00;100221.41;1667861;86;21013;-68
2022/11/25 16:35:11;;;;;;;21.60;9.40;;;;;;;1.99;100.00;100224.48;1667804;85;21072;-69
2022/11/25 16:37:38;;;;;;;16.87;8.98;;;;;;;2.02;100.00;100229.22;1681554;84;21068;-69
2022/11/25 16:40:07;;;;;;;26.12;13.58;;;;;;;2.11;100.00;100229.66;1692722;84;21242;-69
2022/11/25 16:42:35;;;;;;;20.93;11.37;;;;;;;2.00;100.00;100243.08;1693200;84;21132;-68
2022/11/25 16:45:04;;;;;;;22.50;12.37;;;;;;;2.06;100.00;100239.19;1692832;84;21317;-68
2022/11/25 16:47:31;;;;;;;20.80;11.35;;;;;;;2.12;100.00;100240.49;1690128;84;21105;-69
2022/11/25 16:49:57;;;;;;;17.80;9.68;;;;;;;2.07;100.00;100240.91;1692646;84;21057;-68
2022/11/25 16:52:28;;;;;;;18.10;9.93;;;;;;;2.00;100.00;100249.57;1692787;84;21152;-67
2022/11/25 16:54:54;;;;;;;16.30;8.43;;;;;;;2.05;100.00;100247.86;1692620;84;21387;-67
2022/11/25 16:57:20;;;;;;;21.97;10.70;;;;;;;2.01;100.00;100248.28;1675662;85;21080;-68
2022/11/25 16:59:48;;;;;;;20.95;11.33;;;;;;;2.08;100.00;100252.61;1675628;85;21057;-69
2022/11/25 17:02:20;;;;;;;15.70;9.40;;;;;;;2.00;100.00;100257.36;1690227;84;21088;-68
2022/11/25 17:04:47;;;;;;;21.62;10.75;;;;;;;1.89;100.00;100253.05;1704022;84;21587;-68
2022/11/25 17:07:16;;;;;;;19.35;9.23;;;;;;;1.92;100.00;100252.62;1704095;84;21072;-67
2022/11/25 17:09:43;;;;;;;15.65;8.78;;;;;;;1.89;100.00;100247.86;1704796;84;21124;-70
2022/11/25 17:12:17;;;;;;;18.90;10.58;;;;;;;1.89;100.00;100253.05;1675639;85;21218;-68
2022/11/25 17:14:46;;;;;;;19.00;9.18;;;;;;;1.88;100.00;100260.39;1703404;84;21595;-68
2022/11/25 17:17:17;;;;;;;14.18;9.20;;;;;;;1.76;100.00;100255.64;1731891;82;21163;-69
2022/11/25 17:19:43;;;;;;;15.88;8.90;;;;;;;1.86;100.00;100254.36;1733652;82;21540;-70
2022/11/25 17:22:20;;;;;;;15.88;9.43;;;;;;;1.89;100.00;100248.30;1733423;82;21057;-68